sensor_id;sensor_type;location;lat;lon;timestamp;P1;durP1;ratioP1;P2;durP2;ratioP2
45909;SDS011;31622;55.416;37.840;2023-02-28T00:00:25;3.70;;;2.25;;
45909;SDS011;31622;55.416;37.840;2023-02-28T00:02:51;2.40;;;1.70;;
45909;SDS011;31622;55.416;37.840;2023-02-28T00:05:18;3.63;;;2.20;;
45909;SDS011;31622;55.416;37.840;2023-02-28T00:07:45;3.33;;;2.17;;
45909;SDS011;31622;55.416;37.840;2023-02-28T00:10:12;2.92;;;1.63;;
45909;SDS011;31622;55.416;37.840;2023-02-28T00:12:40;3.75;;;2.13;;
45909;SDS011;31622;55.416;37.840;2023-02-28T00:37:09;2.55;;;1.65;;
45909;SDS011;31622;55.416;37.840;2023-02-28T00:39:37;3.15;;;1.70;;
45909;SDS011;31622;55.416;37.840;2023-02-28T00:42:04;2.80;;;1.98;;
45909;SDS011;31622;55.416;37.840;2023-02-28T00:44:30;3.17;;;1.92;;
45909;SDS011;31622;55.416;37.840;2023-02-28T00:46:56;3.45;;;2.00;;
45909;SDS011;31622;55.416;37.840;2023-02-28T00:49:23;5.22;;;1.95;;
45909;SDS011;31622;55.416;37.840;2023-02-28T00:51:49;3.72;;;2.20;;
45909;SDS011;31622;55.416;37.840;2023-02-28T00:54:18;3.45;;;1.90;;
45909;SDS011;31622;55.416;37.840;2023-02-28T00:56:46;4.10;;;2.20;;
45909;SDS011;31622;55.416;37.840;2023-02-28T00:59:12;3.22;;;2.08;;
45909;SDS011;31622;55.416;37.840;2023-02-28T01:01:38;2.72;;;1.67;;
45909;SDS011;31622;55.416;37.840;2023-02-28T01:04:05;3.13;;;2.20;;
45909;SDS011;31622;55.416;37.840;2023-02-28T01:06:31;3.70;;;2.40;;
45909;SDS011;31622;55.416;37.840;2023-02-28T01:08:57;4.13;;;2.03;;
45909;SDS011;31622;55.416;37.840;2023-02-28T01:11:23;3.00;;;2.20;;
45909;SDS011;31622;55.416;37.840;2023-02-28T01:13:49;3.60;;;2.10;;
45909;SDS011;31622;55.416;37.840;2023-02-28T01:16:15;3.00;;;2.28;;
45909;SDS011;31622;55.416;37.840;2023-02-28T01:18:41;2.75;;;1.85;;
45909;SDS011;31622;55.416;37.840;2023-02-28T01:21:08;3.80;;;1.80;;
45909;SDS011;31622;55.416;37.840;2023-02-28T01:23:36;3.22;;;1.80;;
45909;SDS011;31622;55.416;37.840;2023-02-28T01:28:38;3.72;;;2.22;;
45909;SDS011;31622;55.416;37.840;2023-02-28T01:31:04;3.35;;;2.40;;
45909;SDS011;31622;55.416;37.840;2023-02-28T01:33:31;3.10;;;2.10;;
45909;SDS011;31622;55.416;37.840;2023-02-28T01:36:02;3.30;;;1.90;;
45909;SDS011;31622;55.416;37.840;2023-02-28T01:38:30;3.05;;;2.10;;
45909;SDS011;31622;55.416;37.840;2023-02-28T01:40:55;3.13;;;2.00;;
45909;SDS011;31622;55.416;37.840;2023-02-28T01:45:54;3.25;;;2.00;;
45909;SDS011;31622;55.416;37.840;2023-02-28T01:48:22;3.22;;;2.00;;
45909;SDS011;31622;55.416;37.840;2023-02-28T01:50:51;4.60;;;2.10;;
45909;SDS011;31622;55.416;37.840;2023-02-28T01:53:19;3.33;;;2.15;;
45909;SDS011;31622;55.416;37.840;2023-02-28T01:55:49;3.50;;;2.40;;
45909;SDS011;31622;55.416;37.840;2023-02-28T01:58:18;3.10;;;2.00;;
45909;SDS011;31622;55.416;37.840;2023-02-28T02:00:46;3.10;;;2.03;;
45909;SDS011;31622;55.416;37.840;2023-02-28T02:03:15;3.58;;;2.13;;
45909;SDS011;31622;55.416;37.840;2023-02-28T02:05:44;3.28;;;2.00;;
45909;SDS011;31622;55.416;37.840;2023-02-28T02:08:15;3.10;;;1.85;;
45909;SDS011;31622;55.416;37.840;2023-02-28T02:10:47;2.83;;;2.00;;
45909;SDS011;31622;55.416;37.840;2023-02-28T02:18:48;3.58;;;2.17;;
45909;SDS011;31622;55.416;37.840;2023-02-28T02:32:30;3.90;;;2.23;;
45909;SDS011;31622;55.416;37.840;2023-02-28T02:40:27;2.78;;;2.17;;
45909;SDS011;31622;55.416;37.840;2023-02-28T02:48:01;3.90;;;2.17;;
45909;SDS011;31622;55.416;37.840;2023-02-28T02:50:41;3.78;;;2.25;;
45909;SDS011;31622;55.416;37.840;2023-02-28T02:53:09;3.70;;;2.30;;
45909;SDS011;31622;55.416;37.840;2023-02-28T02:55:38;3.53;;;2.25;;
45909;SDS011;31622;55.416;37.840;2023-02-28T02:58:16;2.78;;;2.10;;
45909;SDS011;31622;55.416;37.840;2023-02-28T03:00:46;3.35;;;2.17;;
45909;SDS011;31622;55.416;37.840;2023-02-28T03:03:16;3.15;;;2.28;;
45909;SDS011;31622;55.416;37.840;2023-02-28T03:05:49;3.47;;;2.15;;
45909;SDS011;31622;55.416;37.840;2023-02-28T03:08:16;3.05;;;2.03;;
45909;SDS011;31622;55.416;37.840;2023-02-28T03:10:42;3.90;;;2.28;;
45909;SDS011;31622;55.416;37.840;2023-02-28T03:16:07;3.50;;;1.98;;
45909;SDS011;31622;55.416;37.840;2023-02-28T03:24:43;3.42;;;2.30;;
45909;SDS011;31622;55.416;37.840;2023-02-28T03:27:35;2.85;;;1.98;;
45909;SDS011;31622;55.416;37.840;2023-02-28T03:30:27;3.42;;;2.17;;
45909;SDS011;31622;55.416;37.840;2023-02-28T03:33:06;3.38;;;2.03;;
45909;SDS011;31622;55.416;37.840;2023-02-28T03:35:34;3.40;;;2.10;;
45909;SDS011;31622;55.416;37.840;2023-02-28T03:38:24;3.35;;;1.88;;
45909;SDS011;31622;55.416;37.840;2023-02-28T03:40:55;3.33;;;2.20;;
45909;SDS011;31622;55.416;37.840;2023-02-28T03:43:32;3.33;;;2.00;;
45909;SDS011;31622;55.416;37.840;2023-02-28T03:46:00;2.97;;;1.75;;
45909;SDS011;31622;55.416;37.840;2023-02-28T03:48:32;3.25;;;1.98;;
45909;SDS011;31622;55.416;37.840;2023-02-28T03:51:02;2.78;;;2.00;;
45909;SDS011;31622;55.416;37.840;2023-02-28T03:53:32;3.45;;;2.20;;
45909;SDS011;31622;55.416;37.840;2023-02-28T03:56:02;2.83;;;1.98;;
45909;SDS011;31622;55.416;37.840;2023-02-28T03:58:37;4.05;;;2.50;;
45909;SDS011;31622;55.416;37.840;2023-02-28T04:01:35;3.63;;;2.35;;
45909;SDS011;31622;55.416;37.840;2023-02-28T04:04:03;2.55;;;1.77;;
45909;SDS011;31622;55.416;37.840;2023-02-28T04:06:30;3.53;;;2.20;;
45909;SDS011;31622;55.416;37.840;2023-02-28T04:08:57;2.70;;;1.83;;
45909;SDS011;31622;55.416;37.840;2023-02-28T04:11:24;4.43;;;2.20;;
45909;SDS011;31622;55.416;37.840;2023-02-28T04:13:56;3.28;;;2.17;;
45909;SDS011;31622;55.416;37.840;2023-02-28T04:16:22;4.07;;;2.15;;
45909;SDS011;31622;55.416;37.840;2023-02-28T04:18:48;4.13;;;2.40;;
45909;SDS011;31622;55.416;37.840;2023-02-28T04:21:13;3.92;;;1.98;;
45909;SDS011;31622;55.416;37.840;2023-02-28T04:23:39;3.13;;;2.20;;
45909;SDS011;31622;55.416;37.840;2023-02-28T04:26:05;3.45;;;1.90;;
45909;SDS011;31622;55.416;37.840;2023-02-28T04:28:31;3.33;;;2.17;;
45909;SDS011;31622;55.416;37.840;2023-02-28T04:30:59;3.72;;;1.90;;
45909;SDS011;31622;55.416;37.840;2023-02-28T04:33:26;4.20;;;1.92;;
45909;SDS011;31622;55.416;37.840;2023-02-28T04:35:58;2.67;;;1.90;;
45909;SDS011;31622;55.416;37.840;2023-02-28T04:38:33;4.57;;;2.17;;
45909;SDS011;31622;55.416;37.840;2023-02-28T04:41:00;4.88;;;2.15;;
45909;SDS011;31622;55.416;37.840;2023-02-28T04:43:26;4.53;;;2.10;;
45909;SDS011;31622;55.416;37.840;2023-02-28T04:45:53;4.18;;;2.30;;
45909;SDS011;31622;55.416;37.840;2023-02-28T04:48:25;9.40;;;4.72;;
45909;SDS011;31622;55.416;37.840;2023-02-28T04:50:52;9.57;;;4.38;;
45909;SDS011;31622;55.416;37.840;2023-02-28T04:53:18;6.38;;;3.30;;
45909;SDS011;31622;55.416;37.840;2023-02-28T04:55:44;5.28;;;2.92;;
45909;SDS011;31622;55.416;37.840;2023-02-28T04:58:10;6.43;;;3.05;;
45909;SDS011;31622;55.416;37.840;2023-02-28T05:00:35;6.93;;;3.15;;
45909;SDS011;31622;55.416;37.840;2023-02-28T05:03:01;4.50;;;2.50;;
45909;SDS011;31622;55.416;37.840;2023-02-28T05:05:27;4.97;;;2.55;;
45909;SDS011;31622;55.416;37.840;2023-02-28T05:07:53;4.85;;;2.53;;
45909;SDS011;31622;55.416;37.840;2023-02-28T05:10:21;5.72;;;3.20;;
45909;SDS011;31622;55.416;37.840;2023-02-28T05:12:47;5.88;;;3.08;;
45909;SDS011;31622;55.416;37.840;2023-02-28T05:15:14;3.97;;;2.50;;
45909;SDS011;31622;55.416;37.840;2023-02-28T05:17:40;4.63;;;2.65;;
45909;SDS011;31622;55.416;37.840;2023-02-28T05:20:06;4.07;;;2.40;;
45909;SDS011;31622;55.416;37.840;2023-02-28T05:22:36;4.78;;;2.60;;
45909;SDS011;31622;55.416;37.840;2023-02-28T05:25:03;4.22;;;2.28;;
45909;SDS011;31622;55.416;37.840;2023-02-28T05:27:30;6.15;;;2.50;;
45909;SDS011;31622;55.416;37.840;2023-02-28T05:29:56;6.57;;;2.25;;
45909;SDS011;31622;55.416;37.840;2023-02-28T05:32:22;3.60;;;2.00;;
45909;SDS011;31622;55.416;37.840;2023-02-28T05:34:48;3.13;;;2.17;;
45909;SDS011;31622;55.416;37.840;2023-02-28T05:37:14;4.18;;;2.45;;
45909;SDS011;31622;55.416;37.840;2023-02-28T05:39:41;3.78;;;2.10;;
45909;SDS011;31622;55.416;37.840;2023-02-28T05:42:07;3.78;;;2.00;;
45909;SDS011;31622;55.416;37.840;2023-02-28T05:44:33;5.35;;;2.20;;
45909;SDS011;31622;55.416;37.840;2023-02-28T05:46:59;3.53;;;2.03;;
45909;SDS011;31622;55.416;37.840;2023-02-28T05:49:24;3.13;;;2.10;;
45909;SDS011;31622;55.416;37.840;2023-02-28T05:51:50;4.22;;;2.20;;
45909;SDS011;31622;55.416;37.840;2023-02-28T05:54:16;7.55;;;3.42;;
45909;SDS011;31622;55.416;37.840;2023-02-28T05:56:41;10.88;;;4.80;;
45909;SDS011;31622;55.416;37.840;2023-02-28T05:59:11;9.27;;;5.68;;
45909;SDS011;31622;55.416;37.840;2023-02-28T06:04:13;6.93;;;4.22;;
45909;SDS011;31622;55.416;37.840;2023-02-28T06:06:49;7.18;;;3.97;;
45909;SDS011;31622;55.416;37.840;2023-02-28T06:09:15;7.18;;;3.80;;
45909;SDS011;31622;55.416;37.840;2023-02-28T06:11:41;9.98;;;4.07;;
45909;SDS011;31622;55.416;37.840;2023-02-28T06:14:09;7.65;;;4.25;;
45909;SDS011;31622;55.416;37.840;2023-02-28T06:16:40;6.10;;;3.65;;
45909;SDS011;31622;55.416;37.840;2023-02-28T06:19:05;6.60;;;3.63;;
45909;SDS011;31622;55.416;37.840;2023-02-28T06:21:31;6.18;;;3.70;;
45909;SDS011;31622;55.416;37.840;2023-02-28T06:23:57;6.43;;;3.45;;
45909;SDS011;31622;55.416;37.840;2023-02-28T06:26:25;5.80;;;3.47;;
45909;SDS011;31622;55.416;37.840;2023-02-28T06:28:50;8.70;;;3.38;;
45909;SDS011;31622;55.416;37.840;2023-02-28T06:31:17;5.00;;;3.20;;
45909;SDS011;31622;55.416;37.840;2023-02-28T06:33:44;4.70;;;3.00;;
45909;SDS011;31622;55.416;37.840;2023-02-28T06:36:10;4.70;;;2.97;;
45909;SDS011;31622;55.416;37.840;2023-02-28T06:38:37;4.85;;;2.70;;
45909;SDS011;31622;55.416;37.840;2023-02-28T06:41:03;6.35;;;2.90;;
45909;SDS011;31622;55.416;37.840;2023-02-28T06:43:32;4.97;;;2.65;;
45909;SDS011;31622;55.416;37.840;2023-02-28T06:46:00;6.13;;;2.30;;
45909;SDS011;31622;55.416;37.840;2023-02-28T06:48:27;4.97;;;2.45;;
45909;SDS011;31622;55.416;37.840;2023-02-28T06:51:03;4.03;;;2.40;;
45909;SDS011;31622;55.416;37.840;2023-02-28T06:53:30;4.72;;;2.30;;
45909;SDS011;31622;55.416;37.840;2023-02-28T06:55:56;4.00;;;2.45;;
45909;SDS011;31622;55.416;37.840;2023-02-28T06:58:21;5.88;;;2.47;;
45909;SDS011;31622;55.416;37.840;2023-02-28T07:00:49;5.18;;;2.70;;
45909;SDS011;31622;55.416;37.840;2023-02-28T07:03:16;3.65;;;2.20;;
45909;SDS011;31622;55.416;37.840;2023-02-28T07:05:43;3.92;;;2.25;;
45909;SDS011;31622;55.416;37.840;2023-02-28T07:08:09;3.97;;;2.30;;
45909;SDS011;31622;55.416;37.840;2023-02-28T07:10:38;8.48;;;2.53;;
45909;SDS011;31622;55.416;37.840;2023-02-28T07:13:04;14.13;;;3.97;;
45909;SDS011;31622;55.416;37.840;2023-02-28T07:15:31;10.48;;;3.28;;
45909;SDS011;31622;55.416;37.840;2023-02-28T07:17:57;9.65;;;3.20;;
45909;SDS011;31622;55.416;37.840;2023-02-28T07:20:23;9.00;;;3.03;;
45909;SDS011;31622;55.416;37.840;2023-02-28T07:22:50;8.30;;;3.05;;
45909;SDS011;31622;55.416;37.840;2023-02-28T07:25:24;9.77;;;2.97;;
45909;SDS011;31622;55.416;37.840;2023-02-28T07:27:51;7.72;;;3.80;;
45909;SDS011;31622;55.416;37.840;2023-02-28T07:30:17;8.90;;;4.55;;
45909;SDS011;31622;55.416;37.840;2023-02-28T07:32:43;9.00;;;6.00;;
45909;SDS011;31622;55.416;37.840;2023-02-28T07:35:08;9.30;;;4.97;;
45909;SDS011;31622;55.416;37.840;2023-02-28T07:37:34;11.18;;;4.53;;
45909;SDS011;31622;55.416;37.840;2023-02-28T07:40:03;7.60;;;3.50;;
45909;SDS011;31622;55.416;37.840;2023-02-28T07:42:32;8.07;;;3.97;;
45909;SDS011;31622;55.416;37.840;2023-02-28T07:44:58;7.82;;;3.38;;
45909;SDS011;31622;55.416;37.840;2023-02-28T07:47:24;7.68;;;3.22;;
45909;SDS011;31622;55.416;37.840;2023-02-28T07:49:50;5.60;;;3.17;;
45909;SDS011;31622;55.416;37.840;2023-02-28T07:52:16;6.13;;;3.00;;
45909;SDS011;31622;55.416;37.840;2023-02-28T07:54:42;5.68;;;3.05;;
45909;SDS011;31622;55.416;37.840;2023-02-28T07:57:07;6.93;;;2.65;;
45909;SDS011;31622;55.416;37.840;2023-02-28T07:59:33;5.70;;;2.80;;
45909;SDS011;31622;55.416;37.840;2023-02-28T08:01:59;4.10;;;2.45;;
45909;SDS011;31622;55.416;37.840;2023-02-28T08:04:25;5.38;;;2.75;;
45909;SDS011;31622;55.416;37.840;2023-02-28T08:06:51;6.20;;;2.75;;
45909;SDS011;31622;55.416;37.840;2023-02-28T08:09:21;4.80;;;2.55;;
45909;SDS011;31622;55.416;37.840;2023-02-28T08:11:47;6.25;;;2.83;;
45909;SDS011;31622;55.416;37.840;2023-02-28T08:14:12;4.22;;;2.50;;
45909;SDS011;31622;55.416;37.840;2023-02-28T08:16:38;6.38;;;3.00;;
45909;SDS011;31622;55.416;37.840;2023-02-28T08:19:04;5.40;;;2.58;;
45909;SDS011;31622;55.416;37.840;2023-02-28T08:21:30;7.00;;;2.65;;
45909;SDS011;31622;55.416;37.840;2023-02-28T08:23:56;5.10;;;2.22;;
45909;SDS011;31622;55.416;37.840;2023-02-28T08:26:22;4.03;;;2.13;;
45909;SDS011;31622;55.416;37.840;2023-02-28T08:28:47;3.38;;;2.30;;
45909;SDS011;31622;55.416;37.840;2023-02-28T08:31:14;4.47;;;2.20;;
45909;SDS011;31622;55.416;37.840;2023-02-28T08:33:41;5.88;;;2.33;;
45909;SDS011;31622;55.416;37.840;2023-02-28T08:36:08;2.85;;;2.10;;
45909;SDS011;31622;55.416;37.840;2023-02-28T08:38:34;3.78;;;2.08;;
45909;SDS011;31622;55.416;37.840;2023-02-28T08:41:02;3.70;;;2.30;;
45909;SDS011;31622;55.416;37.840;2023-02-28T08:43:32;2.85;;;1.85;;
45909;SDS011;31622;55.416;37.840;2023-02-28T08:45:59;4.40;;;2.00;;
45909;SDS011;31622;55.416;37.840;2023-02-28T08:48:28;4.43;;;1.83;;
45909;SDS011;31622;55.416;37.840;2023-02-28T08:50:58;2.90;;;2.00;;
45909;SDS011;31622;55.416;37.840;2023-02-28T08:53:26;3.45;;;1.90;;
45909;SDS011;31622;55.416;37.840;2023-02-28T08:58:24;3.22;;;1.83;;
45909;SDS011;31622;55.416;37.840;2023-02-28T09:00:50;3.42;;;2.15;;
45909;SDS011;31622;55.416;37.840;2023-02-28T09:03:16;3.47;;;1.80;;
45909;SDS011;31622;55.416;37.840;2023-02-28T09:05:51;2.88;;;1.98;;
45909;SDS011;31622;55.416;37.840;2023-02-28T09:08:17;3.17;;;2.00;;
45909;SDS011;31622;55.416;37.840;2023-02-28T09:10:43;3.40;;;1.60;;
45909;SDS011;31622;55.416;37.840;2023-02-28T09:13:09;3.20;;;1.67;;
45909;SDS011;31622;55.416;37.840;2023-02-28T09:15:36;3.63;;;1.63;;
45909;SDS011;31622;55.416;37.840;2023-02-28T09:18:02;2.83;;;2.08;;
45909;SDS011;31622;55.416;37.840;2023-02-28T09:20:28;2.35;;;1.50;;
45909;SDS011;31622;55.416;37.840;2023-02-28T09:22:54;3.05;;;1.67;;
45909;SDS011;31622;55.416;37.840;2023-02-28T09:25:20;3.58;;;2.25;;
45909;SDS011;31622;55.416;37.840;2023-02-28T09:27:46;3.33;;;1.90;;
45909;SDS011;31622;55.416;37.840;2023-02-28T09:30:12;3.28;;;1.50;;
45909;SDS011;31622;55.416;37.840;2023-02-28T09:32:38;3.25;;;1.92;;
45909;SDS011;31622;55.416;37.840;2023-02-28T09:35:04;2.35;;;1.70;;
45909;SDS011;31622;55.416;37.840;2023-02-28T09:37:30;2.67;;;1.90;;
45909;SDS011;31622;55.416;37.840;2023-02-28T09:39:56;2.60;;;1.48;;
45909;SDS011;31622;55.416;37.840;2023-02-28T09:42:25;2.83;;;1.50;;
45909;SDS011;31622;55.416;37.840;2023-02-28T09:44:59;3.22;;;1.77;;
45909;SDS011;31622;55.416;37.840;2023-02-28T09:47:29;3.17;;;1.52;;
45909;SDS011;31622;55.416;37.840;2023-02-28T09:49:59;3.28;;;1.80;;
45909;SDS011;31622;55.416;37.840;2023-02-28T09:52:32;3.42;;;1.90;;
45909;SDS011;31622;55.416;37.840;2023-02-28T09:55:01;2.80;;;1.67;;
45909;SDS011;31622;55.416;37.840;2023-02-28T09:57:41;3.72;;;1.63;;
45909;SDS011;31622;55.416;37.840;2023-02-28T10:05:11;4.32;;;1.65;;
45909;SDS011;31622;55.416;37.840;2023-02-28T10:12:59;8.70;;;2.63;;
45909;SDS011;31622;55.416;37.840;2023-02-28T10:15:27;17.15;;;3.72;;
45909;SDS011;31622;55.416;37.840;2023-02-28T10:17:57;16.52;;;4.47;;
45909;SDS011;31622;55.416;37.840;2023-02-28T10:20:26;35.55;;;5.15;;
45909;SDS011;31622;55.416;37.840;2023-02-28T10:22:58;36.00;;;4.97;;
45909;SDS011;31622;55.416;37.840;2023-02-28T10:25:33;22.27;;;4.63;;
45909;SDS011;31622;55.416;37.840;2023-02-28T10:28:13;17.45;;;4.38;;
45909;SDS011;31622;55.416;37.840;2023-02-28T10:30:43;15.30;;;3.83;;
45909;SDS011;31622;55.416;37.840;2023-02-28T10:33:15;17.45;;;4.32;;
45909;SDS011;31622;55.416;37.840;2023-02-28T10:35:44;14.98;;;4.00;;
45909;SDS011;31622;55.416;37.840;2023-02-28T10:38:15;14.20;;;4.13;;
45909;SDS011;31622;55.416;37.840;2023-02-28T10:40:42;12.52;;;4.00;;
45909;SDS011;31622;55.416;37.840;2023-02-28T10:45:53;12.48;;;3.55;;
45909;SDS011;31622;55.416;37.840;2023-02-28T10:51:14;10.80;;;3.58;;
45909;SDS011;31622;55.416;37.840;2023-02-28T10:53:48;10.50;;;3.60;;
45909;SDS011;31622;55.416;37.840;2023-02-28T10:56:22;14.00;;;3.20;;
45909;SDS011;31622;55.416;37.840;2023-02-28T10:58:51;6.65;;;2.97;;
45909;SDS011;31622;55.416;37.840;2023-02-28T11:01:39;9.02;;;3.33;;
45909;SDS011;31622;55.416;37.840;2023-02-28T11:09:46;5.35;;;2.60;;
45909;SDS011;31622;55.416;37.840;2023-02-28T11:12:22;6.40;;;2.67;;
45909;SDS011;31622;55.416;37.840;2023-02-28T11:15:06;5.25;;;2.38;;
45909;SDS011;31622;55.416;37.840;2023-02-28T11:17:57;9.13;;;3.10;;
45909;SDS011;31622;55.416;37.840;2023-02-28T11:20:42;5.60;;;2.20;;
45909;SDS011;31622;55.416;37.840;2023-02-28T11:23:13;7.23;;;2.83;;
45909;SDS011;31622;55.416;37.840;2023-02-28T11:25:39;6.35;;;1.92;;
45909;SDS011;31622;55.416;37.840;2023-02-28T11:28:06;5.95;;;2.05;;
45909;SDS011;31622;55.416;37.840;2023-02-28T11:31:00;6.25;;;2.15;;
45909;SDS011;31622;55.416;37.840;2023-02-28T11:33:59;5.47;;;2.30;;
45909;SDS011;31622;55.416;37.840;2023-02-28T11:38:56;6.28;;;2.20;;
45909;SDS011;31622;55.416;37.840;2023-02-28T11:46:50;6.07;;;2.20;;
45909;SDS011;31622;55.416;37.840;2023-02-28T12:14:30;5.00;;;2.00;;
45909;SDS011;31622;55.416;37.840;2023-02-28T12:28:59;4.97;;;2.10;;
45909;SDS011;31622;55.416;37.840;2023-02-28T12:31:39;5.78;;;2.20;;
45909;SDS011;31622;55.416;37.840;2023-02-28T12:34:12;4.75;;;2.25;;
45909;SDS011;31622;55.416;37.840;2023-02-28T12:36:40;4.45;;;1.90;;
45909;SDS011;31622;55.416;37.840;2023-02-28T12:39:08;3.38;;;1.90;;
45909;SDS011;31622;55.416;37.840;2023-02-28T12:41:45;3.53;;;1.80;;
45909;SDS011;31622;55.416;37.840;2023-02-28T12:46:51;3.20;;;2.10;;
45909;SDS011;31622;55.416;37.840;2023-02-28T12:49:25;4.38;;;2.15;;
45909;SDS011;31622;55.416;37.840;2023-02-28T12:51:57;3.63;;;2.03;;
45909;SDS011;31622;55.416;37.840;2023-02-28T12:59:45;4.45;;;1.60;;
45909;SDS011;31622;55.416;37.840;2023-02-28T13:05:19;3.25;;;1.77;;
45909;SDS011;31622;55.416;37.840;2023-02-28T13:10:40;3.42;;;1.42;;
45909;SDS011;31622;55.416;37.840;2023-02-28T13:13:13;3.38;;;1.60;;
45909;SDS011;31622;55.416;37.840;2023-02-28T13:15:41;3.63;;;1.73;;
45909;SDS011;31622;55.416;37.840;2023-02-28T13:20:59;3.00;;;1.42;;
45909;SDS011;31622;55.416;37.840;2023-02-28T13:26:12;2.67;;;1.40;;
45909;SDS011;31622;55.416;37.840;2023-02-28T13:31:16;3.50;;;1.45;;
45909;SDS011;31622;55.416;37.840;2023-02-28T13:44:03;29.65;;;7.45;;
45909;SDS011;31622;55.416;37.840;2023-02-28T13:46:38;45.55;;;11.23;;
45909;SDS011;31622;55.416;37.840;2023-02-28T14:00:35;43.63;;;12.60;;
45909;SDS011;31622;55.416;37.840;2023-02-28T14:11:25;32.72;;;10.02;;
45909;SDS011;31622;55.416;37.840;2023-02-28T14:14:00;31.63;;;9.85;;
45909;SDS011;31622;55.416;37.840;2023-02-28T14:16:40;29.88;;;9.27;;
45909;SDS011;31622;55.416;37.840;2023-02-28T14:19:19;29.47;;;8.90;;
45909;SDS011;31622;55.416;37.840;2023-02-28T14:22:04;32.38;;;8.95;;
45909;SDS011;31622;55.416;37.840;2023-02-28T14:27:29;28.95;;;8.18;;
45909;SDS011;31622;55.416;37.840;2023-02-28T14:38:03;20.40;;;6.45;;
45909;SDS011;31622;55.416;37.840;2023-02-28T14:40:33;19.73;;;5.82;;
45909;SDS011;31622;55.416;37.840;2023-02-28T14:43:03;15.60;;;5.78;;
45909;SDS011;31622;55.416;37.840;2023-02-28T14:45:31;17.90;;;5.55;;
45909;SDS011;31622;55.416;37.840;2023-02-28T14:47:59;17.67;;;6.68;;
45909;SDS011;31622;55.416;37.840;2023-02-28T14:50:30;18.00;;;5.82;;
45909;SDS011;31622;55.416;37.840;2023-02-28T14:53:00;21.70;;;5.88;;
45909;SDS011;31622;55.416;37.840;2023-02-28T14:55:30;15.27;;;5.28;;
45909;SDS011;31622;55.416;37.840;2023-02-28T14:57:58;11.88;;;4.63;;
45909;SDS011;31622;55.416;37.840;2023-02-28T15:00:29;13.57;;;5.10;;
45909;SDS011;31622;55.416;37.840;2023-02-28T15:02:56;11.75;;;4.65;;
45909;SDS011;31622;55.416;37.840;2023-02-28T15:08:04;12.00;;;4.03;;
45909;SDS011;31622;55.416;37.840;2023-02-28T15:10:36;12.23;;;4.90;;
45909;SDS011;31622;55.416;37.840;2023-02-28T15:13:04;14.88;;;4.88;;
45909;SDS011;31622;55.416;37.840;2023-02-28T15:15:39;13.88;;;4.80;;
45909;SDS011;31622;55.416;37.840;2023-02-28T15:18:46;11.95;;;4.40;;
45909;SDS011;31622;55.416;37.840;2023-02-28T15:21:06;13.90;;;4.38;;
45909;SDS011;31622;55.416;37.840;2023-02-28T15:23:36;10.38;;;3.53;;
45909;SDS011;31622;55.416;37.840;2023-02-28T15:26:02;11.85;;;4.55;;
45909;SDS011;31622;55.416;37.840;2023-02-28T15:28:28;12.48;;;4.38;;
45909;SDS011;31622;55.416;37.840;2023-02-28T15:33:25;10.18;;;3.92;;
45909;SDS011;31622;55.416;37.840;2023-02-28T15:36:15;9.55;;;4.43;;
45909;SDS011;31622;55.416;37.840;2023-02-28T15:38:42;11.02;;;3.92;;
45909;SDS011;31622;55.416;37.840;2023-02-28T15:41:23;11.00;;;4.10;;
45909;SDS011;31622;55.416;37.840;2023-02-28T15:43:57;11.88;;;3.63;;
45909;SDS011;31622;55.416;37.840;2023-02-28T15:50:05;10.13;;;3.63;;
45909;SDS011;31622;55.416;37.840;2023-02-28T15:52:43;9.77;;;3.47;;
45909;SDS011;31622;55.416;37.840;2023-02-28T15:57:46;6.80;;;2.97;;
45909;SDS011;31622;55.416;37.840;2023-02-28T16:00:15;7.32;;;3.03;;
45909;SDS011;31622;55.416;37.840;2023-02-28T16:02:44;6.13;;;2.95;;
45909;SDS011;31622;55.416;37.840;2023-02-28T16:07:36;7.18;;;3.42;;
45909;SDS011;31622;55.416;37.840;2023-02-28T16:10:03;5.38;;;2.78;;
45909;SDS011;31622;55.416;37.840;2023-02-28T16:12:31;5.95;;;2.50;;
45909;SDS011;31622;55.416;37.840;2023-02-28T16:15:02;6.55;;;2.05;;
45909;SDS011;31622;55.416;37.840;2023-02-28T16:17:34;6.47;;;2.58;;
45909;SDS011;31622;55.416;37.840;2023-02-28T16:20:01;4.70;;;2.50;;
45909;SDS011;31622;55.416;37.840;2023-02-28T16:22:30;7.80;;;2.92;;
45909;SDS011;31622;55.416;37.840;2023-02-28T16:24:56;5.72;;;2.20;;
45909;SDS011;31622;55.416;37.840;2023-02-28T16:27:25;6.10;;;2.42;;
45909;SDS011;31622;55.416;37.840;2023-02-28T16:29:57;7.43;;;2.45;;
45909;SDS011;31622;55.416;37.840;2023-02-28T16:32:23;6.97;;;2.22;;
45909;SDS011;31622;55.416;37.840;2023-02-28T16:34:48;6.00;;;2.30;;
45909;SDS011;31622;55.416;37.840;2023-02-28T16:37:15;5.15;;;1.92;;
45909;SDS011;31622;55.416;37.840;2023-02-28T16:39:43;4.97;;;1.67;;
45909;SDS011;31622;55.416;37.840;2023-02-28T16:42:17;5.35;;;2.28;;
45909;SDS011;31622;55.416;37.840;2023-02-28T16:44:47;3.78;;;1.92;;
45909;SDS011;31622;55.416;37.840;2023-02-28T16:47:13;3.20;;;1.63;;
45909;SDS011;31622;55.416;37.840;2023-02-28T16:49:39;7.68;;;2.25;;
45909;SDS011;31622;55.416;37.840;2023-02-28T16:52:07;3.53;;;1.70;;
45909;SDS011;31622;55.416;37.840;2023-02-28T16:54:33;4.13;;;1.73;;
45909;SDS011;31622;55.416;37.840;2023-02-28T16:56:59;5.28;;;1.95;;
45909;SDS011;31622;55.416;37.840;2023-02-28T16:59:25;4.18;;;1.85;;
45909;SDS011;31622;55.416;37.840;2023-02-28T17:01:51;6.50;;;1.67;;
45909;SDS011;31622;55.416;37.840;2023-02-28T17:04:17;3.85;;;1.50;;
45909;SDS011;31622;55.416;37.840;2023-02-28T17:06:43;3.35;;;1.90;;
45909;SDS011;31622;55.416;37.840;2023-02-28T17:09:16;3.35;;;1.70;;
45909;SDS011;31622;55.416;37.840;2023-02-28T17:11:43;3.30;;;1.60;;
45909;SDS011;31622;55.416;37.840;2023-02-28T17:14:09;3.97;;;2.20;;
45909;SDS011;31622;55.416;37.840;2023-02-28T17:16:35;3.15;;;1.60;;
45909;SDS011;31622;55.416;37.840;2023-02-28T17:19:05;3.25;;;1.80;;
45909;SDS011;31622;55.416;37.840;2023-02-28T17:21:32;3.17;;;1.58;;
45909;SDS011;31622;55.416;37.840;2023-02-28T17:23:59;3.47;;;1.48;;
45909;SDS011;31622;55.416;37.840;2023-02-28T17:26:25;3.08;;;1.35;;
45909;SDS011;31622;55.416;37.840;2023-02-28T17:28:53;3.25;;;1.35;;
45909;SDS011;31622;55.416;37.840;2023-02-28T17:31:21;4.07;;;1.63;;
45909;SDS011;31622;55.416;37.840;2023-02-28T17:33:47;3.40;;;1.60;;
45909;SDS011;31622;55.416;37.840;2023-02-28T17:36:17;3.00;;;1.50;;
45909;SDS011;31622;55.416;37.840;2023-02-28T17:38:53;2.30;;;1.52;;
45909;SDS011;31622;55.416;37.840;2023-02-28T17:41:20;2.58;;;1.30;;
45909;SDS011;31622;55.416;37.840;2023-02-28T17:43:46;2.72;;;1.60;;
45909;SDS011;31622;55.416;37.840;2023-02-28T17:46:21;2.85;;;1.60;;
45909;SDS011;31622;55.416;37.840;2023-02-28T17:48:49;3.75;;;1.83;;
45909;SDS011;31622;55.416;37.840;2023-02-28T17:51:16;2.83;;;1.40;;
45909;SDS011;31622;55.416;37.840;2023-02-28T17:53:43;3.72;;;1.90;;
45909;SDS011;31622;55.416;37.840;2023-02-28T17:56:19;2.72;;;1.27;;
45909;SDS011;31622;55.416;37.840;2023-02-28T17:58:46;2.63;;;1.23;;
45909;SDS011;31622;55.416;37.840;2023-02-28T18:01:12;3.65;;;1.67;;
45909;SDS011;31622;55.416;37.840;2023-02-28T18:03:38;3.08;;;1.50;;
45909;SDS011;31622;55.416;37.840;2023-02-28T18:06:04;2.83;;;1.50;;
45909;SDS011;31622;55.416;37.840;2023-02-28T18:08:30;7.47;;;1.70;;
45909;SDS011;31622;55.416;37.840;2023-02-28T18:10:58;2.78;;;1.40;;
45909;SDS011;31622;55.416;37.840;2023-02-28T18:13:24;2.35;;;1.65;;
45909;SDS011;31622;55.416;37.840;2023-02-28T18:15:50;2.80;;;1.30;;